Detall de PIREP

Printer-friendly versionPDF version

[2013/08/10 05:09:00]
Flight IATA:CT2110
Pilot Number:041
Company ICAO:CAT
Aircraft Type:A320/E
PAX:97
Departing Airport: LEVC
Destination Airport: LEST
Alternate Airport:LEMD
Online: VATSIM
Route:CENTA A33 PRADO UN733 FORNO
Flight Level:FL330
No Slew and time accel
No pause
Crash detect
Detect pilot in Cockpit between each 30 and 45 minutes
05:09 Zero fuel Weight: 134052 Lbs, Fuel Weight: 18172 Lbs
05:09 VATSIM:LEVC 100430Z 28003KT CAVOK 20/13 Q1020 NOSIG
05:09 VATSIM:LEST 100430Z 04005KT 360V080 9999 FEW010 16/16 Q1024 NOSIG
05:10 VOICE CATALONIAN
05:17 Parking Brakes off
05:23 Take-off
05:23 Take off Weight: 151220 Lbs
05:23 Wind: 283º @ 002 Knots Heading: 295º
05:23 POS N39º 29´ 46´´ W000º 30´ 02´´
05:23 Gear Up: 183 Knots
05:23 Flaps:3 at 183 Knots
05:23 Flaps:2 at 162 Knots
05:24 Flaps:0 at 188 Knots
05:38 Wind:261º@030 Knots Heading: 296º Ground Speed: 434 Knots Altitude 31079 ft
05:39 TOC
05:39 Fuel Weight: 13182 Lb
05:53 Wind:257º@027 Knots Heading: 294º Ground Speed: 438 Knots Altitude 33307 ft
06:06 TOD
06:06 Fuel Weight: 10472 Lb
06:08 Wind:259º@017 Knots Heading: 302º Ground Speed: 385 Knots Altitude 28487 ft
06:23 Wind:035º@012 Knots Heading: 303º Ground Speed: 278 Knots Altitude 7109 ft
06:34 Flaps:1 at 211 Knots
06:35 Flaps:2 at 199 Knots
06:35 Flaps:3 at 199 Knots
06:35 Flaps:2 at 187 Knots
06:35 Flaps:3 at 186 Knots
06:35 Flaps:4 at 184 Knots
06:35 Gear Down: 177 Knots
06:36 Flaps:5 at 161 Knots
06:37 TouchDown:Rate -388 ft/min Speed: 128 Knots
06:38 Wind:066º@003 Knots Heading: 346º Ground Speed: 016 Knots Altitude 1223 ft
06:38 VATSIM:LEST 100600Z 06004KT 030V100 CAVOK 15/15 Q1023 NOSIG
06:38 Land
06:38 Wind:066º@003 Knots
06:38 Heading: 346º
06:38 Flight Duration: 01:15
06:38 Landing Weight: 141782 Lbs
06:38 POS N42º 53´ 39´´ W008º 24´ 51´´
06:39 Parking brakes on
06:39 Block to Block Duration: 01:22
06:39 Final Fuel: 7590 Lbls
06:39 Spent Fuel: 10582 Lbls
06:39 Flight Length: 443 NM
06:39 TOD Land Length: 148 NM

Exportar CSV

Powered by Drupal - Modified by Danger4k